sensor_id;sensor_type;location;lat;lon;timestamp;pressure;altitude;pressure_sealevel;temperature;humidity
17936;BME280;9093;52.062;4.508;2023-01-15T00:00:52;100101.91;;;8.86;80.34
17936;BME280;9093;52.062;4.508;2023-01-15T00:03:33;100100.19;;;8.85;80.01
17936;BME280;9093;52.062;4.508;2023-01-15T00:06:17;100096.59;;;8.86;80.01
17936;BME280;9093;52.062;4.508;2023-01-15T00:08:58;100100.19;;;8.85;79.90
17936;BME280;9093;52.062;4.508;2023-01-15T00:11:38;100102.97;;;8.84;79.92
17936;BME280;9093;52.062;4.508;2023-01-15T00:14:18;100093.19;;;8.84;79.76
17936;BME280;9093;52.062;4.508;2023-01-15T00:16:59;100106.56;;;8.83;79.79
17936;BME280;9093;52.062;4.508;2023-01-15T00:19:39;100091.47;;;8.83;79.76
17936;BME280;9093;52.062;4.508;2023-01-15T00:22:19;100080.81;;;8.83;79.75
17936;BME280;9093;52.062;4.508;2023-01-15T00:24:59;100099.53;;;8.82;79.59
17936;BME280;9093;52.062;4.508;2023-01-15T00:27:58;100107.44;;;8.83;79.18
17936;BME280;9093;52.062;4.508;2023-01-15T00:30:40;100105.63;;;8.84;78.99
17936;BME280;9093;52.062;4.508;2023-01-15T00:33:21;100083.56;;;8.82;78.92
17936;BME280;9093;52.062;4.508;2023-01-15T00:36:01;100080.91;;;8.82;78.71
17936;BME280;9093;52.062;4.508;2023-01-15T00:38:42;100099.59;;;8.80;78.59
17936;BME280;9093;52.062;4.508;2023-01-15T00:41:22;100111.19;;;8.79;78.36
17936;BME280;9093;52.062;4.508;2023-01-15T00:44:04;100084.59;;;8.79;78.14
17936;BME280;9093;52.062;4.508;2023-01-15T00:46:44;100105.00;;;8.79;77.85
17936;BME280;9093;52.062;4.508;2023-01-15T00:49:25;100084.78;;;8.76;77.85
17936;BME280;9093;52.062;4.508;2023-01-15T00:52:05;100093.69;;;8.75;77.65
17936;BME280;9093;52.062;4.508;2023-01-15T00:54:46;100095.59;;;8.73;77.53
17936;BME280;9093;52.062;4.508;2023-01-15T00:57:27;100098.34;;;8.72;77.30
17936;BME280;9093;52.062;4.508;2023-01-15T01:00:08;100077.94;;;8.72;77.15
17936;BME280;9093;52.062;4.508;2023-01-15T01:02:49;100103.69;;;8.72;76.89
17936;BME280;9093;52.062;4.508;2023-01-15T01:05:30;100091.41;;;8.69;76.70
17936;BME280;9093;52.062;4.508;2023-01-15T01:08:10;100113.63;;;8.68;76.69
17936;BME280;9093;52.062;4.508;2023-01-15T01:11:09;100102.13;;;8.68;76.49
17936;BME280;9093;52.062;4.508;2023-01-15T01:13:50;100095.09;;;8.67;76.04
17936;BME280;9093;52.062;4.508;2023-01-15T01:16:33;100096.06;;;8.66;76.42
17936;BME280;9093;52.062;4.508;2023-01-15T01:19:19;100090.72;;;8.66;76.42
17936;BME280;9093;52.062;4.508;2023-01-15T01:22:00;100098.78;;;8.64;76.20
17936;BME280;9093;52.062;4.508;2023-01-15T01:24:40;100092.53;;;8.65;76.17
17936;BME280;9093;52.062;4.508;2023-01-15T01:27:20;100090.81;;;8.64;76.41
17936;BME280;9093;52.062;4.508;2023-01-15T01:30:01;100090.81;;;8.64;76.37
17936;BME280;9093;52.062;4.508;2023-01-15T01:32:45;100089.97;;;8.64;76.06
17936;BME280;9093;52.062;4.508;2023-01-15T01:35:25;100091.84;;;8.62;76.25
17936;BME280;9093;52.062;4.508;2023-01-15T01:38:05;100097.16;;;8.62;76.01
17936;BME280;9093;52.062;4.508;2023-01-15T01:40:45;100098.03;;;8.62;76.01
17936;BME280;9093;52.062;4.508;2023-01-15T01:43:28;100098.03;;;8.62;75.90
17936;BME280;9093;52.062;4.508;2023-01-15T01:46:09;100110.53;;;8.60;75.66
17936;BME280;9093;52.062;4.508;2023-01-15T01:48:51;100103.34;;;8.62;75.63
17936;BME280;9093;52.062;4.508;2023-01-15T01:51:37;100117.41;;;8.64;75.39
17936;BME280;9093;52.062;4.508;2023-01-15T01:54:20;100092.53;;;8.65;75.30
17936;BME280;9093;52.062;4.508;2023-01-15T01:57:06;100113.03;;;8.63;75.25
17936;BME280;9093;52.062;4.508;2023-01-15T01:59:48;100122.75;;;8.64;75.19
17936;BME280;9093;52.062;4.508;2023-01-15T02:02:29;100107.63;;;8.65;75.16
17936;BME280;9093;52.062;4.508;2023-01-15T02:05:13;100111.16;;;8.65;74.94
17936;BME280;9093;52.062;4.508;2023-01-15T02:07:54;100118.28;;;8.65;74.82
17936;BME280;9093;52.062;4.508;2023-01-15T02:10:35;100106.00;;;8.62;75.13
17936;BME280;9093;52.062;4.508;2023-01-15T02:16:23;100109.78;;;8.58;74.88
17936;BME280;9093;52.062;4.508;2023-01-15T02:19:29;100108.06;;;8.57;74.86
17936;BME280;9093;52.062;4.508;2023-01-15T02:22:32;100091.31;;;8.55;74.53
17936;BME280;9093;52.062;4.508;2023-01-15T02:25:23;100097.59;;;8.54;74.47
17936;BME280;9093;52.062;4.508;2023-01-15T02:28:15;100095.13;;;8.51;74.52
17936;BME280;9093;52.062;4.508;2023-01-15T02:31:16;100094.34;;;8.49;74.33
17936;BME280;9093;52.062;4.508;2023-01-15T02:36:42;100098.81;;;8.48;73.95
17936;BME280;9093;52.062;4.508;2023-01-15T02:39:25;100111.25;;;8.48;74.16
17936;BME280;9093;52.062;4.508;2023-01-15T02:42:12;100114.88;;;8.47;73.80
17936;BME280;9093;52.062;4.508;2023-01-15T02:44:56;100119.34;;;8.46;74.00
17936;BME280;9093;52.062;4.508;2023-01-15T02:47:39;100106.97;;;8.45;73.65
17936;BME280;9093;52.062;4.508;2023-01-15T02:50:29;100099.06;;;8.44;73.62
17936;BME280;9093;52.062;4.508;2023-01-15T02:53:16;100092.88;;;8.43;73.66
17936;BME280;9093;52.062;4.508;2023-01-15T02:56:02;100093.75;;;8.44;73.44
17936;BME280;9093;52.062;4.508;2023-01-15T02:58:48;100100.94;;;8.42;73.53
17936;BME280;9093;52.062;4.508;2023-01-15T03:01:34;100093.06;;;8.40;73.56
17936;BME280;9093;52.062;4.508;2023-01-15T03:04:27;100085.00;;;8.42;73.02
17936;BME280;9093;52.062;4.508;2023-01-15T03:10:09;100074.53;;;8.39;73.18
17936;BME280;9093;52.062;4.508;2023-01-15T03:12:56;100080.81;;;8.38;73.18
17936;BME280;9093;52.062;4.508;2023-01-15T03:15:57;100077.47;;;8.34;72.95
17936;BME280;9093;52.062;4.508;2023-01-15T03:19:32;100069.56;;;8.33;73.26
17936;BME280;9093;52.062;4.508;2023-01-15T03:22:32;100087.25;;;8.34;73.14
17936;BME280;9093;52.062;4.508;2023-01-15T03:25:26;100075.75;;;8.33;72.97
17936;BME280;9093;52.062;4.508;2023-01-15T03:28:10;100073.09;;;8.33;72.96
17936;BME280;9093;52.062;4.508;2023-01-15T03:30:53;100071.38;;;8.32;72.95
17936;BME280;9093;52.062;4.508;2023-01-15T03:33:34;100083.81;;;8.32;72.81
17936;BME280;9093;52.062;4.508;2023-01-15T03:36:14;100078.50;;;8.32;73.01
17936;BME280;9093;52.062;4.508;2023-01-15T03:38:55;100077.56;;;8.33;72.78
17936;BME280;9093;52.062;4.508;2023-01-15T03:41:58;100078.50;;;8.32;72.60
17936;BME280;9093;52.062;4.508;2023-01-15T03:45:02;100072.22;;;8.33;72.43
17936;BME280;9093;52.062;4.508;2023-01-15T03:47:49;100059.06;;;8.30;72.23
17936;BME280;9093;52.062;4.508;2023-01-15T03:50:56;100058.38;;;8.26;72.39
17936;BME280;9093;52.062;4.508;2023-01-15T03:53:52;100063.50;;;8.29;72.07
17936;BME280;9093;52.062;4.508;2023-01-15T03:56:51;100062.66;;;8.29;72.39
17936;BME280;9093;52.062;4.508;2023-01-15T03:59:38;100064.38;;;8.30;72.21
17936;BME280;9093;52.062;4.508;2023-01-15T04:02:22;100062.59;;;8.30;72.28
17936;BME280;9093;52.062;4.508;2023-01-15T04:05:04;100051.09;;;8.30;72.26
17936;BME280;9093;52.062;4.508;2023-01-15T04:07:45;100055.50;;;8.31;72.12
17936;BME280;9093;52.062;4.508;2023-01-15T04:10:26;100081.06;;;8.33;72.15
17936;BME280;9093;52.062;4.508;2023-01-15T04:13:06;100074.69;;;8.36;72.02
17936;BME280;9093;52.062;4.508;2023-01-15T04:15:47;100074.69;;;8.36;72.01
17936;BME280;9093;52.062;4.508;2023-01-15T04:18:27;100073.84;;;8.35;72.02
17936;BME280;9093;52.062;4.508;2023-01-15T04:21:08;100072.97;;;8.35;71.87
17936;BME280;9093;52.062;4.508;2023-01-15T04:23:48;100084.41;;;8.37;71.85
17936;BME280;9093;52.062;4.508;2023-01-15T04:26:29;100078.31;;;8.35;71.69
17936;BME280;9093;52.062;4.508;2023-01-15T04:29:09;100074.69;;;8.36;71.74
17936;BME280;9093;52.062;4.508;2023-01-15T04:31:49;100068.53;;;8.35;71.81
17936;BME280;9093;52.062;4.508;2023-01-15T04:34:32;100067.97;;;8.29;72.19
17936;BME280;9093;52.062;4.508;2023-01-15T04:37:17;100066.13;;;8.31;72.03
17936;BME280;9093;52.062;4.508;2023-01-15T04:39:57;100069.19;;;8.23;72.35
17936;BME280;9093;52.062;4.508;2023-01-15T04:42:38;100062.84;;;8.26;72.04
17936;BME280;9093;52.062;4.508;2023-01-15T04:45:36;100059.41;;;8.24;71.90
17936;BME280;9093;52.062;4.508;2023-01-15T04:48:17;100067.31;;;8.25;71.78
17936;BME280;9093;52.062;4.508;2023-01-15T04:51:01;100080.53;;;8.27;71.96
17936;BME280;9093;52.062;4.508;2023-01-15T04:53:42;100076.94;;;8.28;71.67
17936;BME280;9093;52.062;4.508;2023-01-15T04:56:22;100071.59;;;8.28;71.31
17936;BME280;9093;52.062;4.508;2023-01-15T04:59:02;100060.97;;;8.28;71.27
17936;BME280;9093;52.062;4.508;2023-01-15T05:01:43;100069.88;;;8.27;70.88
17936;BME280;9093;52.062;4.508;2023-01-15T05:04:23;100072.53;;;8.27;70.70
17936;BME280;9093;52.062;4.508;2023-01-15T05:07:04;100084.97;;;8.26;70.68
17936;BME280;9093;52.062;4.508;2023-01-15T05:09:44;100066.44;;;8.25;70.26
17936;BME280;9093;52.062;4.508;2023-01-15T05:12:26;100062.06;;;8.24;70.08
17936;BME280;9093;52.062;4.508;2023-01-15T05:15:06;100068.31;;;8.23;69.72
17936;BME280;9093;52.062;4.508;2023-01-15T05:17:47;100079.06;;;8.21;69.08
17936;BME280;9093;52.062;4.508;2023-01-15T05:20:27;100067.47;;;8.22;69.19
17936;BME280;9093;52.062;4.508;2023-01-15T05:23:07;100078.09;;;8.22;68.93
17936;BME280;9093;52.062;4.508;2023-01-15T05:25:48;100063.19;;;8.20;69.09
17936;BME280;9093;52.062;4.508;2023-01-15T05:28:28;100091.66;;;8.18;68.73
17936;BME280;9093;52.062;4.508;2023-01-15T05:31:11;100063.47;;;8.15;68.74
17936;BME280;9093;52.062;4.508;2023-01-15T05:33:54;100060.88;;;8.14;68.32
17936;BME280;9093;52.062;4.508;2023-01-15T05:36:34;100046.72;;;8.13;68.04
17936;BME280;9093;52.062;4.508;2023-01-15T05:39:16;100058.38;;;8.11;68.49
17936;BME280;9093;52.062;4.508;2023-01-15T05:41:56;100054.00;;;8.09;68.28
17936;BME280;9093;52.062;4.508;2023-01-15T05:44:37;100078.13;;;8.06;68.10
17936;BME280;9093;52.062;4.508;2023-01-15T05:47:17;100058.91;;;8.01;67.59
17936;BME280;9093;52.062;4.508;2023-01-15T05:50:00;100063.94;;;7.90;67.23
17936;BME280;9093;52.062;4.508;2023-01-15T05:52:40;100045.34;;;7.90;67.22
17936;BME280;9093;52.062;4.508;2023-01-15T05:55:20;100061.47;;;7.87;66.98
17936;BME280;9093;52.062;4.508;2023-01-15T05:58:01;100048.34;;;7.84;67.06
17936;BME280;9093;52.062;4.508;2023-01-15T06:00:41;100051.19;;;7.81;66.92
17936;BME280;9093;52.062;4.508;2023-01-15T06:03:22;100086.72;;;7.79;66.80
17936;BME280;9093;52.062;4.508;2023-01-15T06:06:03;100060.09;;;7.80;66.64
17936;BME280;9093;52.062;4.508;2023-01-15T06:08:44;100060.94;;;7.81;66.58
17936;BME280;9093;52.062;4.508;2023-01-15T06:11:25;100072.44;;;7.81;66.53
17936;BME280;9093;52.062;4.508;2023-01-15T06:14:06;100083.06;;;7.81;66.32
17936;BME280;9093;52.062;4.508;2023-01-15T06:16:46;100087.50;;;7.81;66.15
17936;BME280;9093;52.062;4.508;2023-01-15T06:19:26;100071.50;;;7.82;66.28
17936;BME280;9093;52.062;4.508;2023-01-15T06:22:07;100084.78;;;7.82;66.48
17936;BME280;9093;52.062;4.508;2023-01-15T06:24:47;100090.09;;;7.82;66.43
17936;BME280;9093;52.062;4.508;2023-01-15T06:27:27;100077.75;;;7.81;66.45
17936;BME280;9093;52.062;4.508;2023-01-15T06:30:08;100079.63;;;7.79;66.48
17936;BME280;9093;52.062;4.508;2023-01-15T06:32:49;100075.34;;;7.77;66.29
17936;BME280;9093;52.062;4.508;2023-01-15T06:35:29;100087.69;;;7.78;66.50
17936;BME280;9093;52.062;4.508;2023-01-15T06:38:09;100082.38;;;7.78;66.33
17936;BME280;9093;52.062;4.508;2023-01-15T06:40:50;100080.47;;;7.80;66.50
17936;BME280;9093;52.062;4.508;2023-01-15T06:43:30;100060.09;;;7.80;66.51
17936;BME280;9093;52.062;4.508;2023-01-15T06:46:29;100065.41;;;7.80;66.46
17936;BME280;9093;52.062;4.508;2023-01-15T06:49:28;100072.50;;;7.80;66.54
17936;BME280;9093;52.062;4.508;2023-01-15T06:52:09;100078.69;;;7.80;66.82
17936;BME280;9093;52.062;4.508;2023-01-15T06:54:50;100076.09;;;7.79;66.73
17936;BME280;9093;52.062;4.508;2023-01-15T06:57:30;100078.75;;;7.79;66.92
17936;BME280;9093;52.062;4.508;2023-01-15T07:00:11;100067.38;;;7.77;66.85
17936;BME280;9093;52.062;4.508;2023-01-15T07:02:51;100070.91;;;7.77;66.82
17936;BME280;9093;52.062;4.508;2023-01-15T07:05:32;100070.13;;;7.75;66.71
17936;BME280;9093;52.062;4.508;2023-01-15T07:08:12;100049.78;;;7.74;66.81
17936;BME280;9093;52.062;4.508;2023-01-15T07:10:52;100074.63;;;7.73;66.80
17936;BME280;9093;52.062;4.508;2023-01-15T07:13:33;100058.78;;;7.72;66.73
17936;BME280;9093;52.062;4.508;2023-01-15T07:16:14;100053.38;;;7.73;67.01
17936;BME280;9093;52.062;4.508;2023-01-15T07:19:07;100063.06;;;7.74;67.03
17936;BME280;9093;52.062;4.508;2023-01-15T07:21:48;100076.28;;;7.76;67.06
17936;BME280;9093;52.062;4.508;2023-01-15T07:24:28;100053.22;;;7.76;67.11
17936;BME280;9093;52.062;4.508;2023-01-15T07:27:09;100057.59;;;7.77;66.91
17936;BME280;9093;52.062;4.508;2023-01-15T07:29:49;100064.63;;;7.78;67.02
17936;BME280;9093;52.062;4.508;2023-01-15T07:32:31;100056.66;;;7.78;66.99
17936;BME280;9093;52.062;4.508;2023-01-15T07:35:11;100043.28;;;7.80;66.96
17936;BME280;9093;52.062;4.508;2023-01-15T07:37:51;100041.41;;;7.82;66.96
17936;BME280;9093;52.062;4.508;2023-01-15T07:40:32;100040.34;;;7.84;66.98
17936;BME280;9093;52.062;4.508;2023-01-15T07:43:12;100036.75;;;7.85;66.98
17936;BME280;9093;52.062;4.508;2023-01-15T07:46:11;100035.81;;;7.86;66.85
17936;BME280;9093;52.062;4.508;2023-01-15T07:49:10;100032.31;;;7.86;67.25
17936;BME280;9093;52.062;4.508;2023-01-15T07:52:13;100050.84;;;7.87;67.17
17936;BME280;9093;52.062;4.508;2023-01-15T07:54:54;100047.25;;;7.88;67.05
17936;BME280;9093;52.062;4.508;2023-01-15T07:57:35;100029.38;;;7.90;67.02
17936;BME280;9093;52.062;4.508;2023-01-15T08:00:20;100052.22;;;7.94;67.22
17936;BME280;9093;52.062;4.508;2023-01-15T08:03:00;100041.41;;;7.97;67.33
17936;BME280;9093;52.062;4.508;2023-01-15T08:05:42;100042.84;;;8.03;67.41
17936;BME280;9093;52.062;4.508;2023-01-15T08:08:22;100056.84;;;8.06;67.32
17936;BME280;9093;52.062;4.508;2023-01-15T08:11:03;100046.81;;;8.12;67.14
17936;BME280;9093;52.062;4.508;2023-01-15T08:14:02;100052.03;;;8.13;66.94
17936;BME280;9093;52.062;4.508;2023-01-15T08:17:01;100044.00;;;8.15;67.15
17936;BME280;9093;52.062;4.508;2023-01-15T08:19:41;100058.03;;;8.17;67.19
17936;BME280;9093;52.062;4.508;2023-01-15T08:22:21;100067.72;;;8.18;67.23
17936;BME280;9093;52.062;4.508;2023-01-15T08:25:02;100078.44;;;8.16;67.22
17936;BME280;9093;52.062;4.508;2023-01-15T08:27:43;100062.59;;;8.15;66.99
17936;BME280;9093;52.062;4.508;2023-01-15T08:30:24;100049.47;;;8.12;66.97
17936;BME280;9093;52.062;4.508;2023-01-15T08:33:04;100042.53;;;8.09;67.15
17936;BME280;9093;52.062;4.508;2023-01-15T08:35:45;100047.94;;;8.07;66.64
17936;BME280;9093;52.062;4.508;2023-01-15T08:38:25;100051.53;;;8.06;66.72
17936;BME280;9093;52.062;4.508;2023-01-15T08:41:05;100063.88;;;8.07;66.56
17936;BME280;9093;52.062;4.508;2023-01-15T08:43:45;100039.03;;;8.08;66.62
17936;BME280;9093;52.062;4.508;2023-01-15T08:46:26;100055.84;;;8.09;66.62
17936;BME280;9093;52.062;4.508;2023-01-15T08:49:09;100054.97;;;8.08;66.44
17936;BME280;9093;52.062;4.508;2023-01-15T08:51:49;100052.31;;;8.08;66.68
17936;BME280;9093;52.062;4.508;2023-01-15T08:54:31;100061.97;;;8.09;66.90
17936;BME280;9093;52.062;4.508;2023-01-15T08:57:11;100038.84;;;8.12;67.02
17936;BME280;9093;52.062;4.508;2023-01-15T08:59:52;100044.00;;;8.15;67.12
17936;BME280;9093;52.062;4.508;2023-01-15T09:02:33;100058.75;;;8.20;67.19
17936;BME280;9093;52.062;4.508;2023-01-15T09:05:13;100050.69;;;8.22;67.14
17936;BME280;9093;52.062;4.508;2023-01-15T09:07:53;100061.31;;;8.22;67.03
17936;BME280;9093;52.062;4.508;2023-01-15T09:10:34;100064.72;;;8.24;67.20
17936;BME280;9093;52.062;4.508;2023-01-15T09:13:18;100069.88;;;8.27;67.18
17936;BME280;9093;52.062;4.508;2023-01-15T09:15:59;100071.59;;;8.28;67.29
17936;BME280;9093;52.062;4.508;2023-01-15T09:18:40;100042.19;;;8.31;67.25
17936;BME280;9093;52.062;4.508;2023-01-15T09:21:20;100069.50;;;8.34;67.07
17936;BME280;9093;52.062;4.508;2023-01-15T09:24:01;100049.81;;;8.37;67.32
17936;BME280;9093;52.062;4.508;2023-01-15T09:26:42;100054.97;;;8.40;67.28
17936;BME280;9093;52.062;4.508;2023-01-15T09:29:25;100064.50;;;8.44;67.33
17936;BME280;9093;52.062;4.508;2023-01-15T09:32:05;100056.88;;;8.38;67.49
17936;BME280;9093;52.062;4.508;2023-01-15T09:34:47;100049.31;;;8.46;67.13
17936;BME280;9093;52.062;4.508;2023-01-15T09:37:27;100078.38;;;8.49;66.97
17936;BME280;9093;52.062;4.508;2023-01-15T09:41:06;100040.19;;;8.50;67.18
17936;BME280;9093;52.062;4.508;2023-01-15T09:46:49;100041.84;;;8.53;67.04
17936;BME280;9093;52.062;4.508;2023-01-15T09:49:40;100045.84;;;8.60;67.13
17936;BME280;9093;52.062;4.508;2023-01-15T09:55:24;100048.25;;;8.64;67.12
17936;BME280;9093;52.062;4.508;2023-01-15T09:58:09;100041.84;;;8.67;67.40
17936;BME280;9093;52.062;4.508;2023-01-15T10:00:50;100061.19;;;8.70;67.19
17936;BME280;9093;52.062;4.508;2023-01-15T10:03:51;100060.03;;;8.74;67.24
17936;BME280;9093;52.062;4.508;2023-01-15T10:07:02;100065.00;;;8.80;66.98
17936;BME280;9093;52.062;4.508;2023-01-15T10:09:46;100058.38;;;8.87;66.81
17936;BME280;9093;52.062;4.508;2023-01-15T10:12:30;100072.47;;;8.90;66.46
17936;BME280;9093;52.062;4.508;2023-01-15T10:15:21;100065.22;;;8.92;66.63
17936;BME280;9093;52.062;4.508;2023-01-15T10:18:03;100087.22;;;8.95;66.51
17936;BME280;9093;52.062;4.508;2023-01-15T10:24:15;100082.75;;;8.96;66.29
17936;BME280;9093;52.062;4.508;2023-01-15T10:26:57;100065.63;;;9.00;66.21
17936;BME280;9093;52.062;4.508;2023-01-15T10:29:44;100079.72;;;9.02;65.89
17936;BME280;9093;52.062;4.508;2023-01-15T10:38:34;100104.25;;;9.07;65.60
17936;BME280;9093;52.062;4.508;2023-01-15T10:41:33;100096.19;;;9.08;65.70
17936;BME280;9093;52.062;4.508;2023-01-15T10:44:45;100097.22;;;9.06;65.39
17936;BME280;9093;52.062;4.508;2023-01-15T10:47:33;100097.22;;;9.06;65.64
17936;BME280;9093;52.062;4.508;2023-01-15T10:50:22;100099.88;;;9.06;65.51
17936;BME280;9093;52.062;4.508;2023-01-15T10:53:17;100099.81;;;9.07;65.71
17936;BME280;9093;52.062;4.508;2023-01-15T10:56:06;100113.78;;;9.11;65.51
17936;BME280;9093;52.062;4.508;2023-01-15T10:58:55;100088.69;;;9.15;65.53
17936;BME280;9093;52.062;4.508;2023-01-15T11:01:37;100109.81;;;9.18;65.41
17936;BME280;9093;52.062;4.508;2023-01-15T11:04:18;100111.53;;;9.19;65.48
17936;BME280;9093;52.062;4.508;2023-01-15T11:06:59;100096.31;;;9.21;65.62
17936;BME280;9093;52.062;4.508;2023-01-15T11:09:42;100112.88;;;9.26;65.53
17936;BME280;9093;52.062;4.508;2023-01-15T11:12:26;100121.44;;;9.31;65.39
17936;BME280;9093;52.062;4.508;2023-01-15T11:15:17;100123.94;;;9.34;65.26
17936;BME280;9093;52.062;4.508;2023-01-15T11:18:27;100103.19;;;9.39;65.31
17936;BME280;9093;52.062;4.508;2023-01-15T11:21:27;100096.72;;;9.43;65.54
17936;BME280;9093;52.062;4.508;2023-01-15T11:24:14;100092.94;;;9.47;65.13
17936;BME280;9093;52.062;4.508;2023-01-15T11:26:55;100092.75;;;9.50;65.07
17936;BME280;9093;52.062;4.508;2023-01-15T11:29:36;100119.00;;;9.56;65.23
17936;BME280;9093;52.062;4.508;2023-01-15T11:32:36;100102.06;;;9.57;65.16
17936;BME280;9093;52.062;4.508;2023-01-15T11:35:17;100066.50;;;9.58;65.56
17936;BME280;9093;52.062;4.508;2023-01-15T11:38:06;100072.69;;;9.59;65.14
17936;BME280;9093;52.062;4.508;2023-01-15T11:41:00;100063.81;;;9.58;65.13
17936;BME280;9093;52.062;4.508;2023-01-15T11:43:41;100076.28;;;9.58;65.20
17936;BME280;9093;52.062;4.508;2023-01-15T11:46:39;100083.63;;;9.54;64.75
17936;BME280;9093;52.062;4.508;2023-01-15T11:49:38;100103.78;;;9.58;64.80
17936;BME280;9093;52.062;4.508;2023-01-15T11:52:41;100032.69;;;9.59;64.75
17936;BME280;9093;52.062;4.508;2023-01-15T11:55:25;100129.88;;;9.53;64.94
17936;BME280;9093;52.062;4.508;2023-01-15T11:58:08;100096.56;;;9.46;65.00
17936;BME280;9093;52.062;4.508;2023-01-15T12:00:49;100109.56;;;9.37;65.13
17936;BME280;9093;52.062;4.508;2023-01-15T12:03:33;100095.56;;;9.33;65.35
17936;BME280;9093;52.062;4.508;2023-01-15T12:06:18;100096.91;;;9.26;65.00
17936;BME280;9093;52.062;4.508;2023-01-15T12:12:33;100111.25;;;9.23;64.59
17936;BME280;9093;52.062;4.508;2023-01-15T12:15:37;100107.84;;;9.21;64.51
17936;BME280;9093;52.062;4.508;2023-01-15T12:21:32;100091.84;;;9.21;64.70
17936;BME280;9093;52.062;4.508;2023-01-15T12:30:08;100109.56;;;9.22;64.89
17936;BME280;9093;52.062;4.508;2023-01-15T12:33:01;100116.56;;;9.23;64.77
17936;BME280;9093;52.062;4.508;2023-01-15T12:35:56;100097.84;;;9.25;64.83
17936;BME280;9093;52.062;4.508;2023-01-15T12:38:50;100103.00;;;9.28;65.03
17936;BME280;9093;52.062;4.508;2023-01-15T12:41:39;100099.03;;;9.35;64.88
17936;BME280;9093;52.062;4.508;2023-01-15T12:48:20;100091.59;;;9.40;65.36
17936;BME280;9093;52.062;4.508;2023-01-15T12:51:06;100091.22;;;9.46;65.22
17936;BME280;9093;52.062;4.508;2023-01-15T12:53:52;100075.81;;;9.51;65.22
17936;BME280;9093;52.062;4.508;2023-01-15T12:56:44;100091.63;;;9.54;64.77
17936;BME280;9093;52.062;4.508;2023-01-15T12:59:34;100081.69;;;9.56;65.03
17936;BME280;9093;52.062;4.508;2023-01-15T13:02:35;100088.56;;;9.60;65.03
17936;BME280;9093;52.062;4.508;2023-01-15T13:05:31;100084.00;;;9.62;64.94
17936;BME280;9093;52.062;4.508;2023-01-15T13:08:24;100082.19;;;9.63;64.97
17936;BME280;9093;52.062;4.508;2023-01-15T13:11:10;100098.75;;;9.68;64.78
17936;BME280;9093;52.062;4.508;2023-01-15T13:13:51;100116.53;;;9.67;64.91
17936;BME280;9093;52.062;4.508;2023-01-15T13:22:24;100088.19;;;9.66;64.41
17936;BME280;9093;52.062;4.508;2023-01-15T13:31:27;100101.69;;;9.63;64.29
17936;BME280;9093;52.062;4.508;2023-01-15T13:37:02;100097.31;;;9.62;63.98
17936;BME280;9093;52.062;4.508;2023-01-15T13:39:44;100107.31;;;9.59;63.65
17936;BME280;9093;52.062;4.508;2023-01-15T13:42:27;100106.53;;;9.57;63.72
17936;BME280;9093;52.062;4.508;2023-01-15T13:48:06;100121.88;;;9.53;63.63
17936;BME280;9093;52.062;4.508;2023-01-15T13:50:52;100131.38;;;9.57;63.91
17936;BME280;9093;52.062;4.508;2023-01-15T13:53:39;100122.63;;;9.55;63.73
17936;BME280;9093;52.062;4.508;2023-01-15T13:59:40;100121.19;;;9.50;63.78
17936;BME280;9093;52.062;4.508;2023-01-15T14:02:24;100142.41;;;9.51;63.75
17936;BME280;9093;52.062;4.508;2023-01-15T14:05:32;100134.72;;;9.47;63.89
17936;BME280;9093;52.062;4.508;2023-01-15T14:08:16;100140.69;;;9.50;63.99
17936;BME280;9093;52.062;4.508;2023-01-15T14:10:56;100135.56;;;9.47;64.17
17936;BME280;9093;52.062;4.508;2023-01-15T14:13:45;100143.75;;;9.44;64.21
17936;BME280;9093;52.062;4.508;2023-01-15T14:16:58;100145.91;;;9.38;63.92
17936;BME280;9093;52.062;4.508;2023-01-15T14:22:50;100154.19;;;9.33;64.01
17936;BME280;9093;52.062;4.508;2023-01-15T14:31:17;100152.78;;;9.12;64.40
17936;BME280;9093;52.062;4.508;2023-01-15T14:34:11;100165.22;;;9.11;64.45
17936;BME280;9093;52.062;4.508;2023-01-15T14:37:06;100141.38;;;9.10;64.25
17936;BME280;9093;52.062;4.508;2023-01-15T14:40:00;100172.28;;;9.12;64.39
17936;BME280;9093;52.062;4.508;2023-01-15T14:42:41;100158.03;;;9.13;64.10
17936;BME280;9093;52.062;4.508;2023-01-15T14:45:42;100159.03;;;9.11;64.28
17936;BME280;9093;52.062;4.508;2023-01-15T14:51:11;100155.81;;;9.06;64.48
17936;BME280;9093;52.062;4.508;2023-01-15T14:53:56;100179.38;;;8.98;64.69
17936;BME280;9093;52.062;4.508;2023-01-15T14:56:44;100166.75;;;8.85;64.96
17936;BME280;9093;52.062;4.508;2023-01-15T14:59:45;100158.59;;;8.73;65.19
17936;BME280;9093;52.062;4.508;2023-01-15T15:02:38;100168.56;;;8.69;65.53
17936;BME280;9093;52.062;4.508;2023-01-15T15:05:21;100160.50;;;8.71;65.30
17936;BME280;9093;52.062;4.508;2023-01-15T15:08:02;100165.75;;;8.72;65.38
17936;BME280;9093;52.062;4.508;2023-01-15T15:10:45;100162.91;;;8.75;65.27
17936;BME280;9093;52.062;4.508;2023-01-15T15:13:31;100162.91;;;8.75;65.20
17936;BME280;9093;52.062;4.508;2023-01-15T15:16:18;100177.00;;;8.77;65.22
17936;BME280;9093;52.062;4.508;2023-01-15T15:19:13;100174.41;;;8.76;65.13
17936;BME280;9093;52.062;4.508;2023-01-15T15:21:57;100172.59;;;8.76;65.13
17936;BME280;9093;52.062;4.508;2023-01-15T15:24:48;100189.59;;;8.74;64.91
17936;BME280;9093;52.062;4.508;2023-01-15T15:27:29;100177.16;;;8.74;64.95
17936;BME280;9093;52.062;4.508;2023-01-15T15:30:10;100175.25;;;8.76;65.12
17936;BME280;9093;52.062;4.508;2023-01-15T15:32:51;100198.28;;;8.77;65.25
17936;BME280;9093;52.062;4.508;2023-01-15T15:35:33;100200.75;;;8.80;65.46
17936;BME280;9093;52.062;4.508;2023-01-15T15:38:16;100207.63;;;8.84;65.28
17936;BME280;9093;52.062;4.508;2023-01-15T15:40:59;100201.34;;;8.85;65.46
17936;BME280;9093;52.062;4.508;2023-01-15T15:43:58;100215.34;;;8.73;65.90
17936;BME280;9093;52.062;4.508;2023-01-15T15:46:57;100201.19;;;8.57;66.08
17936;BME280;9093;52.062;4.508;2023-01-15T15:49:56;100224.97;;;8.44;66.59
17936;BME280;9093;52.062;4.508;2023-01-15T15:52:43;100214.81;;;8.35;66.83
17936;BME280;9093;52.062;4.508;2023-01-15T15:55:35;100215.06;;;8.31;67.29
17936;BME280;9093;52.062;4.508;2023-01-15T15:58:20;100203.34;;;8.18;67.38
17936;BME280;9093;52.062;4.508;2023-01-15T16:01:02;100212.09;;;8.20;67.29